Time;durP1;ratioP1;P1;durP2;ratioP2;P2;SDS_P1;SDS_P2;PMS_P1;PMS_P2;Temp;Humidity;BMP_temperature;BMP_pressure;BME280_temperature;BME280_humidity;BME280_pressure;Samples;Min_cycle;Max_cycle;Signal;HPM_P1;HPM_P2
2022/03/12 00:00:18;;;;;;;11.15;6.749999;;;;;;;-1.18;35.56055;95304.64;;;;
2022/03/12 00:01:26;;;;;;;11.15;6.749999;;;;;;;-1.18;35.56055;95304.64;;;;
2022/03/12 00:02:30;;;;;;;11.15;6.749999;;;;;;;-1.18;35.56055;95304.64;;;;
2022/03/12 00:03:31;;;;;;;11.15;6.749999;;;;;;;-1.18;35.56055;95304.64;;;;
2022/03/12 00:04:32;;;;;;;11.15;6.749999;;;;;;;-1.18;35.56055;95304.64;;;;
2022/03/12 00:05:35;;;;;;;11.15;6.749999;;;;;;;-1.18;35.56055;95304.64;;;;
2022/03/12 00:06:36;;;;;;;11.15;6.749999;;;;;;;-1.18;35.56055;95304.64;;;;
2022/03/12 00:07:42;;;;;;;11.15;6.749999;;;;;;;-1.18;35.56055;95304.64;;;;
2022/03/12 00:08:44;;;;;;;10.15;6.150001;;;;;;;-1.28;35.64746;95310.6;;;;
2022/03/12 00:09:44;;;;;;;10.15;6.150001;;;;;;;-1.28;35.64746;95310.6;;;;
2022/03/12 00:10:50;;;;;;;10.15;6.150001;;;;;;;-1.28;35.64746;95310.6;;;;
2022/03/12 00:11:52;;;;;;;10.15;6.150001;;;;;;;-1.28;35.64746;95310.6;;;;
2022/03/12 00:12:53;;;;;;;10.15;6.150001;;;;;;;-1.28;35.64746;95310.6;;;;
2022/03/12 00:13:53;;;;;;;10.15;6.150001;;;;;;;-1.28;35.64746;95310.6;;;;
2022/03/12 00:14:56;;;;;;;10.15;6.150001;;;;;;;-1.28;35.64746;95310.6;;;;
2022/03/12 00:15:59;;;;;;;10.15;6.150001;;;;;;;-1.28;35.64746;95310.6;;;;
2022/03/12 00:17:00;;;;;;;10.15;6.150001;;;;;;;-1.28;35.64746;95310.6;;;;
2022/03/12 00:18:00;;;;;;;10.15;6.150001;;;;;;;-1.28;35.64746;95310.6;;;;
2022/03/12 00:19:02;;;;;;;10.15;6.150001;;;;;;;-1.28;35.64746;95310.6;;;;
2022/03/12 00:20:12;;;;;;;14.5;7;;;;;;;-1.37;35.68262;95314.23;;;;
2022/03/12 00:21:13;;;;;;;14.5;7;;;;;;;-1.37;35.68262;95314.23;;;;
2022/03/12 00:22:14;;;;;;;14.5;7;;;;;;;-1.37;35.68262;95314.23;;;;
2022/03/12 00:23:21;;;;;;;14.5;7;;;;;;;-1.37;35.68262;95314.23;;;;
2022/03/12 00:24:22;;;;;;;14.5;7;;;;;;;-1.37;35.68262;95314.23;;;;
2022/03/12 00:25:24;;;;;;;14.5;7;;;;;;;-1.37;35.68262;95314.23;;;;
2022/03/12 00:26:25;;;;;;;14.5;7;;;;;;;-1.37;35.68262;95314.23;;;;
2022/03/12 00:27:26;;;;;;;14.5;7;;;;;;;-1.37;35.68262;95314.23;;;;
2022/03/12 00:28:26;;;;;;;14.5;7;;;;;;;-1.37;35.68262;95314.23;;;;
2022/03/12 00:29:27;;;;;;;14.5;7;;;;;;;-1.37;35.68262;95314.23;;;;
2022/03/12 00:30:28;;;;;;;10.25;6.1;;;;;;;-1.42;35.7627;95317.35;;;;
2022/03/12 00:31:29;;;;;;;10.25;6.1;;;;;;;-1.42;35.7627;95317.35;;;;
2022/03/12 00:32:30;;;;;;;10.25;6.1;;;;;;;-1.42;35.7627;95317.35;;;;
2022/03/12 00:33:31;;;;;;;10.25;6.1;;;;;;;-1.42;35.7627;95317.35;;;;
2022/03/12 00:34:31;;;;;;;10.25;6.1;;;;;;;-1.42;35.7627;95317.35;;;;
2022/03/12 00:35:32;;;;;;;10.25;6.1;;;;;;;-1.42;35.7627;95317.35;;;;
2022/03/12 00:36:32;;;;;;;10.25;6.1;;;;;;;-1.42;35.7627;95317.35;;;;
2022/03/12 00:37:33;;;;;;;10.25;6.1;;;;;;;-1.42;35.7627;95317.35;;;;
2022/03/12 00:38:34;;;;;;;10.25;6.1;;;;;;;-1.42;35.7627;95317.35;;;;
2022/03/12 00:39:35;;;;;;;10.25;6.1;;;;;;;-1.42;35.7627;95317.35;;;;
2022/03/12 00:40:37;;;;;;;10.25;6.1;;;;;;;-1.42;35.7627;95317.35;;;;
2022/03/12 00:41:38;;;;;;;10.85;5.8;;;;;;;-1.49;35.9248;95325.19;;;;
2022/03/12 00:42:38;;;;;;;10.85;5.8;;;;;;;-1.49;35.9248;95325.19;;;;
2022/03/12 00:43:39;;;;;;;10.85;5.8;;;;;;;-1.49;35.9248;95325.19;;;;
2022/03/12 00:44:40;;;;;;;10.85;5.8;;;;;;;-1.49;35.9248;95325.19;;;;
2022/03/12 00:45:40;;;;;;;10.85;5.8;;;;;;;-1.49;35.9248;95325.19;;;;
2022/03/12 00:46:41;;;;;;;10.85;5.8;;;;;;;-1.49;35.9248;95325.19;;;;
2022/03/12 00:47:42;;;;;;;10.85;5.8;;;;;;;-1.49;35.9248;95325.19;;;;
2022/03/12 00:48:43;;;;;;;10.85;5.8;;;;;;;-1.49;35.9248;95325.19;;;;
2022/03/12 00:49:45;;;;;;;10.85;5.8;;;;;;;-1.49;35.9248;95325.19;;;;
2022/03/12 00:50:46;;;;;;;10.85;5.8;;;;;;;-1.49;35.9248;95325.19;;;;
2022/03/12 00:51:48;;;;;;;13.85;6.3;;;;;;;-1.57;35.90625;95328.25;;;;
2022/03/12 00:52:48;;;;;;;13.85;6.3;;;;;;;-1.57;35.90625;95328.25;;;;
2022/03/12 00:53:49;;;;;;;13.85;6.3;;;;;;;-1.57;35.90625;95328.25;;;;
2022/03/12 00:54:49;;;;;;;13.85;6.3;;;;;;;-1.57;35.90625;95328.25;;;;
2022/03/12 00:55:50;;;;;;;13.85;6.3;;;;;;;-1.57;35.90625;95328.25;;;;
2022/03/12 00:56:50;;;;;;;13.85;6.3;;;;;;;-1.57;35.90625;95328.25;;;;
2022/03/12 00:57:51;;;;;;;13.85;6.3;;;;;;;-1.57;35.90625;95328.25;;;;
2022/03/12 00:58:51;;;;;;;13.85;6.3;;;;;;;-1.57;35.90625;95328.25;;;;
2022/03/12 00:59:52;;;;;;;13.85;6.3;;;;;;;-1.57;35.90625;95328.25;;;;
2022/03/12 01:00:52;;;;;;;13.85;6.3;;;;;;;-1.57;35.90625;95328.25;;;;
2022/03/12 01:01:53;;;;;;;13.85;6.3;;;;;;;-1.57;35.90625;95328.25;;;;
2022/03/12 01:02:53;;;;;;;9.399999;5.749999;;;;;;;-1.66;35.93066;95336.25;;;;
2022/03/12 01:03:54;;;;;;;9.399999;5.749999;;;;;;;-1.66;35.93066;95336.25;;;;
2022/03/12 01:04:55;;;;;;;9.399999;5.749999;;;;;;;-1.66;35.93066;95336.25;;;;
2022/03/12 01:05:55;;;;;;;9.399999;5.749999;;;;;;;-1.66;35.93066;95336.25;;;;
2022/03/12 01:06:59;;;;;;;9.399999;5.749999;;;;;;;-1.66;35.93066;95336.25;;;;
2022/03/12 01:07:59;;;;;;;9.399999;5.749999;;;;;;;-1.66;35.93066;95336.25;;;;
2022/03/12 01:09:00;;;;;;;9.399999;5.749999;;;;;;;-1.66;35.93066;95336.25;;;;
2022/03/12 01:10:01;;;;;;;9.399999;5.749999;;;;;;;-1.66;35.93066;95336.25;;;;
2022/03/12 01:11:03;;;;;;;9.399999;5.749999;;;;;;;-1.66;35.93066;95336.25;;;;
2022/03/12 01:12:07;;;;;;;9.399999;5.749999;;;;;;;-1.66;35.93066;95336.25;;;;
2022/03/12 01:13:08;;;;;;;10.9;5.85;;;;;;;-1.78;36.03613;95344.12;;;;
2022/03/12 01:14:10;;;;;;;10.9;5.85;;;;;;;-1.78;36.03613;95344.12;;;;
2022/03/12 01:15:11;;;;;;;10.9;5.85;;;;;;;-1.78;36.03613;95344.12;;;;
2022/03/12 01:16:11;;;;;;;10.9;5.85;;;;;;;-1.78;36.03613;95344.12;;;;
2022/03/12 01:17:12;;;;;;;10.9;5.85;;;;;;;-1.78;36.03613;95344.12;;;;
2022/03/12 01:18:13;;;;;;;10.9;5.85;;;;;;;-1.78;36.03613;95344.12;;;;
2022/03/12 01:19:16;;;;;;;10.9;5.85;;;;;;;-1.78;36.03613;95344.12;;;;
2022/03/12 01:20:17;;;;;;;10.9;5.85;;;;;;;-1.78;36.03613;95344.12;;;;
2022/03/12 01:21:22;;;;;;;10.9;5.85;;;;;;;-1.78;36.03613;95344.12;;;;
2022/03/12 01:22:24;;;;;;;10.9;5.85;;;;;;;-1.78;36.03613;95344.12;;;;
2022/03/12 01:23:25;;;;;;;9.75;5.95;;;;;;;-1.9;36.15234;95334.41;;;;
2022/03/12 01:24:25;;;;;;;9.75;5.95;;;;;;;-1.9;36.15234;95334.41;;;;
2022/03/12 01:25:27;;;;;;;9.75;5.95;;;;;;;-1.9;36.15234;95334.41;;;;
2022/03/12 01:26:27;;;;;;;9.75;5.95;;;;;;;-1.9;36.15234;95334.41;;;;
2022/03/12 01:27:28;;;;;;;9.75;5.95;;;;;;;-1.9;36.15234;95334.41;;;;
2022/03/12 01:28:28;;;;;;;9.75;5.95;;;;;;;-1.9;36.15234;95334.41;;;;
2022/03/12 01:29:29;;;;;;;9.75;5.95;;;;;;;-1.9;36.15234;95334.41;;;;
2022/03/12 01:30:30;;;;;;;9.75;5.95;;;;;;;-1.9;36.15234;95334.41;;;;
2022/03/12 01:31:31;;;;;;;9.75;5.95;;;;;;;-1.9;36.15234;95334.41;;;;
2022/03/12 01:32:32;;;;;;;9.75;5.95;;;;;;;-1.9;36.15234;95334.41;;;;
2022/03/12 01:33:32;;;;;;;9.75;5.95;;;;;;;-1.9;36.15234;95334.41;;;;
2022/03/12 01:34:33;;;;;;;17.15;6.15;;;;;;;-1.98;36.19824;95333.45;;;;
2022/03/12 01:35:34;;;;;;;17.15;6.15;;;;;;;-1.98;36.19824;95333.45;;;;
2022/03/12 01:36:35;;;;;;;17.15;6.15;;;;;;;-1.98;36.19824;95333.45;;;;
2022/03/12 01:37:36;;;;;;;17.15;6.15;;;;;;;-1.98;36.19824;95333.45;;;;
2022/03/12 01:38:36;;;;;;;17.15;6.15;;;;;;;-1.98;36.19824;95333.45;;;;
2022/03/12 01:39:45;;;;;;;17.15;6.15;;;;;;;-1.98;36.19824;95333.45;;;;
2022/03/12 01:40:47;;;;;;;17.15;6.15;;;;;;;-1.98;36.19824;95333.45;;;;
2022/03/12 01:41:47;;;;;;;17.15;6.15;;;;;;;-1.98;36.19824;95333.45;;;;
2022/03/12 01:42:48;;;;;;;17.15;6.15;;;;;;;-1.98;36.19824;95333.45;;;;
2022/03/12 01:43:49;;;;;;;17.15;6.15;;;;;;;-1.98;36.19824;95333.45;;;;
2022/03/12 01:44:50;;;;;;;10.5;6.05;;;;;;;-2.05;36.25488;95326.34;;;;
2022/03/12 01:45:51;;;;;;;10.5;6.05;;;;;;;-2.05;36.25488;95326.34;;;;
2022/03/12 01:46:51;;;;;;;10.5;6.05;;;;;;;-2.05;36.25488;95326.34;;;;
2022/03/12 01:47:55;;;;;;;10.5;6.05;;;;;;;-2.05;36.25488;95326.34;;;;
2022/03/12 01:48:59;;;;;;;10.5;6.05;;;;;;;-2.05;36.25488;95326.34;;;;
2022/03/12 01:50:04;;;;;;;10.5;6.05;;;;;;;-2.05;36.25488;95326.34;;;;
2022/03/12 01:51:05;;;;;;;10.5;6.05;;;;;;;-2.05;36.25488;95326.34;;;;
2022/03/12 01:52:07;;;;;;;10.5;6.05;;;;;;;-2.05;36.25488;95326.34;;;;
2022/03/12 01:53:08;;;;;;;10.5;6.05;;;;;;;-2.05;36.25488;95326.34;;;;
2022/03/12 01:54:10;;;;;;;10.5;6.05;;;;;;;-2.05;36.25488;95326.34;;;;
2022/03/12 01:55:12;;;;;;;10.5;6.05;;;;;;;-2.05;36.25488;95326.34;;;;
2022/03/12 01:56:13;;;;;;;9.849999;5.849999;;;;;;;-2.15;36.33105;95326.86;;;;
2022/03/12 01:57:14;;;;;;;9.849999;5.849999;;;;;;;-2.15;36.33105;95326.86;;;;
2022/03/12 01:58:15;;;;;;;9.849999;5.849999;;;;;;;-2.15;36.33105;95326.86;;;;
2022/03/12 01:59:16;;;;;;;9.849999;5.849999;;;;;;;-2.15;36.33105;95326.86;;;;
2022/03/12 02:00:16;;;;;;;9.849999;5.849999;;;;;;;-2.15;36.33105;95326.86;;;;
2022/03/12 02:01:23;;;;;;;9.849999;5.849999;;;;;;;-2.15;36.33105;95326.86;;;;
2022/03/12 02:02:27;;;;;;;9.849999;5.849999;;;;;;;-2.15;36.33105;95326.86;;;;
2022/03/12 02:03:29;;;;;;;9.849999;5.849999;;;;;;;-2.15;36.33105;95326.86;;;;
2022/03/12 02:04:29;;;;;;;9.849999;5.849999;;;;;;;-2.15;36.33105;95326.86;;;;
2022/03/12 02:05:30;;;;;;;9.849999;5.849999;;;;;;;-2.15;36.33105;95326.86;;;;
2022/03/12 02:06:30;;;;;;;9.650002;5.95;;;;;;;-2.22;36.46094;95322.77;;;;
2022/03/12 02:07:31;;;;;;;9.650002;5.95;;;;;;;-2.22;36.46094;95322.77;;;;
2022/03/12 02:08:31;;;;;;;9.650002;5.95;;;;;;;-2.22;36.46094;95322.77;;;;
2022/03/12 02:09:32;;;;;;;9.650002;5.95;;;;;;;-2.22;36.46094;95322.77;;;;
2022/03/12 02:10:33;;;;;;;9.650002;5.95;;;;;;;-2.22;36.46094;95322.77;;;;
2022/03/12 02:11:34;;;;;;;9.650002;5.95;;;;;;;-2.22;36.46094;95322.77;;;;
2022/03/12 02:12:35;;;;;;;9.650002;5.95;;;;;;;-2.22;36.46094;95322.77;;;;
2022/03/12 02:13:37;;;;;;;9.650002;5.95;;;;;;;-2.22;36.46094;95322.77;;;;
2022/03/12 02:14:38;;;;;;;9.650002;5.95;;;;;;;-2.22;36.46094;95322.77;;;;
2022/03/12 02:15:39;;;;;;;9.650002;5.95;;;;;;;-2.22;36.46094;95322.77;;;;
2022/03/12 02:16:39;;;;;;;9.650002;5.95;;;;;;;-2.22;36.46094;95322.77;;;;
2022/03/12 02:17:44;;;;;;;9.650002;5.95;;;;;;;-2.22;36.46094;95322.77;;;;
2022/03/12 02:18:45;;;;;;;9.650002;5.95;;;;;;;-2.22;36.46094;95322.77;;;;
2022/03/12 02:19:46;;;;;;;9.650002;5.95;;;;;;;-2.22;36.46094;95322.77;;;;
2022/03/12 02:20:47;;;;;;;9.650002;5.95;;;;;;;-2.22;36.46094;95322.77;;;;
2022/03/12 02:21:48;;;;;;;9.650002;5.95;;;;;;;-2.22;36.46094;95322.77;;;;
2022/03/12 02:22:52;;;;;;;9.650002;5.95;;;;;;;-2.22;36.46094;95322.77;;;;
2022/03/12 02:23:53;;;;;;;9.650002;5.95;;;;;;;-2.22;36.46094;95322.77;;;;
2022/03/12 02:24:53;;;;;;;9.650002;5.95;;;;;;;-2.22;36.46094;95322.77;;;;
2022/03/12 02:25:54;;;;;;;9.650002;5.95;;;;;;;-2.22;36.46094;95322.77;;;;
2022/03/12 02:27:01;;;;;;;9.650002;5.95;;;;;;;-2.22;36.46094;95322.77;;;;
2022/03/12 02:28:05;;;;;;;10.7;6.349999;;;;;;;-2.24;36.66992;95330.03;;;;
2022/03/12 02:29:18;;;;;;;10.7;6.349999;;;;;;;-2.24;36.66992;95330.03;;;;
2022/03/12 02:30:21;;;;;;;10.7;6.349999;;;;;;;-2.24;36.66992;95330.03;;;;
2022/03/12 02:31:26;;;;;;;10.7;6.349999;;;;;;;-2.24;36.66992;95330.03;;;;
2022/03/12 02:32:27;;;;;;;10.7;6.349999;;;;;;;-2.24;36.66992;95330.03;;;;
2022/03/12 02:33:28;;;;;;;10.7;6.349999;;;;;;;-2.24;36.66992;95330.03;;;;
2022/03/12 02:34:30;;;;;;;10.7;6.349999;;;;;;;-2.24;36.66992;95330.03;;;;
2022/03/12 02:35:35;;;;;;;10.7;6.349999;;;;;;;-2.24;36.66992;95330.03;;;;
2022/03/12 02:36:36;;;;;;;10.7;6.349999;;;;;;;-2.24;36.66992;95330.03;;;;
2022/03/12 02:37:43;;;;;;;10.7;6.349999;;;;;;;-2.24;36.66992;95330.03;;;;
2022/03/12 02:38:44;;;;;;;10.5;5.799999;;;;;;;-2.22;36.71289;95341.77;;;;
2022/03/12 02:39:48;;;;;;;10.5;5.799999;;;;;;;-2.22;36.71289;95341.77;;;;
2022/03/12 02:40:49;;;;;;;10.5;5.799999;;;;;;;-2.22;36.71289;95341.77;;;;
2022/03/12 02:41:50;;;;;;;10.5;5.799999;;;;;;;-2.22;36.71289;95341.77;;;;
2022/03/12 02:42:51;;;;;;;10.5;5.799999;;;;;;;-2.22;36.71289;95341.77;;;;
2022/03/12 02:43:53;;;;;;;10.5;5.799999;;;;;;;-2.22;36.71289;95341.77;;;;
2022/03/12 02:44:54;;;;;;;10.5;5.799999;;;;;;;-2.22;36.71289;95341.77;;;;
2022/03/12 02:46:02;;;;;;;10.5;5.799999;;;;;;;-2.22;36.71289;95341.77;;;;
2022/03/12 02:47:03;;;;;;;10.5;5.799999;;;;;;;-2.22;36.71289;95341.77;;;;
2022/03/12 02:48:10;;;;;;;10.5;5.799999;;;;;;;-2.22;36.71289;95341.77;;;;
2022/03/12 02:49:10;;;;;;;9.25;5.95;;;;;;;-2.26;36.70898;95346.12;;;;
2022/03/12 02:50:12;;;;;;;9.25;5.95;;;;;;;-2.26;36.70898;95346.12;;;;
2022/03/12 02:51:13;;;;;;;9.25;5.95;;;;;;;-2.26;36.70898;95346.12;;;;
2022/03/12 02:52:14;;;;;;;9.25;5.95;;;;;;;-2.26;36.70898;95346.12;;;;
2022/03/12 02:53:16;;;;;;;9.25;5.95;;;;;;;-2.26;36.70898;95346.12;;;;
2022/03/12 02:54:17;;;;;;;9.25;5.95;;;;;;;-2.26;36.70898;95346.12;;;;
2022/03/12 02:55:17;;;;;;;9.25;5.95;;;;;;;-2.26;36.70898;95346.12;;;;
2022/03/12 02:56:20;;;;;;;9.25;5.95;;;;;;;-2.26;36.70898;95346.12;;;;
2022/03/12 02:57:22;;;;;;;9.25;5.95;;;;;;;-2.26;36.70898;95346.12;;;;
2022/03/12 02:58:24;;;;;;;9.25;5.95;;;;;;;-2.26;36.70898;95346.12;;;;
2022/03/12 02:59:25;;;;;;;9.25;5.95;;;;;;;-2.26;36.70898;95346.12;;;;
2022/03/12 03:00:25;;;;;;;9.950001;5.95;;;;;;;-2.32;36.74609;95347.58;;;;
2022/03/12 03:01:26;;;;;;;9.950001;5.95;;;;;;;-2.32;36.74609;95347.58;;;;
2022/03/12 03:02:31;;;;;;;9.950001;5.95;;;;;;;-2.32;36.74609;95347.58;;;;
2022/03/12 03:03:34;;;;;;;9.950001;5.95;;;;;;;-2.32;36.74609;95347.58;;;;
2022/03/12 03:04:36;;;;;;;9.950001;5.95;;;;;;;-2.32;36.74609;95347.58;;;;
2022/03/12 03:05:40;;;;;;;9.950001;5.95;;;;;;;-2.32;36.74609;95347.58;;;;
2022/03/12 03:06:43;;;;;;;9.950001;5.95;;;;;;;-2.32;36.74609;95347.58;;;;
2022/03/12 03:07:45;;;;;;;9.950001;5.95;;;;;;;-2.32;36.74609;95347.58;;;;
2022/03/12 03:08:46;;;;;;;9.950001;5.95;;;;;;;-2.32;36.74609;95347.58;;;;
2022/03/12 03:09:46;;;;;;;9.950001;5.95;;;;;;;-2.32;36.74609;95347.58;;;;
2022/03/12 03:10:47;;;;;;;10.35;6.3;;;;;;;-2.45;36.84082;95347.19;;;;
2022/03/12 03:11:49;;;;;;;10.35;6.3;;;;;;;-2.45;36.84082;95347.19;;;;
2022/03/12 03:12:50;;;;;;;10.35;6.3;;;;;;;-2.45;36.84082;95347.19;;;;
2022/03/12 03:13:52;;;;;;;10.35;6.3;;;;;;;-2.45;36.84082;95347.19;;;;
2022/03/12 03:14:53;;;;;;;10.35;6.3;;;;;;;-2.45;36.84082;95347.19;;;;
2022/03/12 03:15:54;;;;;;;10.35;6.3;;;;;;;-2.45;36.84082;95347.19;;;;
2022/03/12 03:16:58;;;;;;;10.35;6.3;;;;;;;-2.45;36.84082;95347.19;;;;
2022/03/12 03:18:00;;;;;;;10.35;6.3;;;;;;;-2.45;36.84082;95347.19;;;;
2022/03/12 03:19:01;;;;;;;10.35;6.3;;;;;;;-2.45;36.84082;95347.19;;;;
2022/03/12 03:20:02;;;;;;;10.35;6.3;;;;;;;-2.45;36.84082;95347.19;;;;
2022/03/12 03:21:03;;;;;;;11.95;6.349999;;;;;;;-2.44;36.95605;95331.72;;;;
2022/03/12 03:22:07;;;;;;;11.95;6.349999;;;;;;;-2.44;36.95605;95331.72;;;;
2022/03/12 03:23:08;;;;;;;11.95;6.349999;;;;;;;-2.44;36.95605;95331.72;;;;
2022/03/12 03:24:10;;;;;;;11.95;6.349999;;;;;;;-2.44;36.95605;95331.72;;;;
2022/03/12 03:25:10;;;;;;;11.95;6.349999;;;;;;;-2.44;36.95605;95331.72;;;;
2022/03/12 03:26:11;;;;;;;11.95;6.349999;;;;;;;-2.44;36.95605;95331.72;;;;
2022/03/12 03:27:12;;;;;;;11.95;6.349999;;;;;;;-2.44;36.95605;95331.72;;;;
2022/03/12 03:28:13;;;;;;;11.95;6.349999;;;;;;;-2.44;36.95605;95331.72;;;;
2022/03/12 03:29:15;;;;;;;11.95;6.349999;;;;;;;-2.44;36.95605;95331.72;;;;
2022/03/12 03:30:15;;;;;;;11.95;6.349999;;;;;;;-2.44;36.95605;95331.72;;;;
2022/03/12 03:31:18;;;;;;;11.95;6.349999;;;;;;;-2.44;36.95605;95331.72;;;;
2022/03/12 03:32:18;;;;;;;12.25;6.450001;;;;;;;-2.47;37.00684;95341.22;;;;
2022/03/12 03:33:19;;;;;;;12.25;6.450001;;;;;;;-2.47;37.00684;95341.22;;;;
2022/03/12 03:34:22;;;;;;;12.25;6.450001;;;;;;;-2.47;37.00684;95341.22;;;;
2022/03/12 03:35:23;;;;;;;12.25;6.450001;;;;;;;-2.47;37.00684;95341.22;;;;
2022/03/12 03:36:24;;;;;;;12.25;6.450001;;;;;;;-2.47;37.00684;95341.22;;;;
2022/03/12 03:37:25;;;;;;;12.25;6.450001;;;;;;;-2.47;37.00684;95341.22;;;;
2022/03/12 03:38:25;;;;;;;12.25;6.450001;;;;;;;-2.47;37.00684;95341.22;;;;
2022/03/12 03:39:26;;;;;;;12.25;6.450001;;;;;;;-2.47;37.00684;95341.22;;;;
2022/03/12 03:40:26;;;;;;;12.25;6.450001;;;;;;;-2.47;37.00684;95341.22;;;;
2022/03/12 03:41:27;;;;;;;12.25;6.450001;;;;;;;-2.47;37.00684;95341.22;;;;
2022/03/12 03:42:27;;;;;;;12.25;6.450001;;;;;;;-2.47;37.00684;95341.22;;;;
2022/03/12 03:43:28;;;;;;;12.25;6.450001;;;;;;;-2.47;37.00684;95341.22;;;;
2022/03/12 03:44:28;;;;;;;12.25;6.450001;;;;;;;-2.47;37.00684;95341.22;;;;
2022/03/12 03:45:30;;;;;;;12.25;6.450001;;;;;;;-2.47;37.00684;95341.22;;;;
2022/03/12 03:46:30;;;;;;;12.25;6.450001;;;;;;;-2.47;37.00684;95341.22;;;;
2022/03/12 03:47:31;;;;;;;12.25;6.450001;;;;;;;-2.47;37.00684;95341.22;;;;
2022/03/12 03:48:33;;;;;;;12.25;6.450001;;;;;;;-2.47;37.00684;95341.22;;;;
2022/03/12 03:49:38;;;;;;;12.25;6.450001;;;;;;;-2.47;37.00684;95341.22;;;;
2022/03/12 03:50:38;;;;;;;12.25;6.450001;;;;;;;-2.47;37.00684;95341.22;;;;
2022/03/12 03:51:41;;;;;;;12.25;6.450001;;;;;;;-2.47;37.00684;95341.22;;;;
2022/03/12 03:52:42;;;;;;;12.25;6.450001;;;;;;;-2.47;37.00684;95341.22;;;;
2022/03/12 03:53:42;;;;;;;11.7;6.550001;;;;;;;-2.48;37.19336;95358.53;;;;
2022/03/12 03:54:43;;;;;;;11.7;6.550001;;;;;;;-2.48;37.19336;95358.53;;;;
2022/03/12 03:55:43;;;;;;;11.7;6.550001;;;;;;;-2.48;37.19336;95358.53;;;;
2022/03/12 03:56:44;;;;;;;11.7;6.550001;;;;;;;-2.48;37.19336;95358.53;;;;
2022/03/12 03:57:45;;;;;;;11.7;6.550001;;;;;;;-2.48;37.19336;95358.53;;;;
2022/03/12 03:58:45;;;;;;;11.7;6.550001;;;;;;;-2.48;37.19336;95358.53;;;;
2022/03/12 03:59:46;;;;;;;11.7;6.550001;;;;;;;-2.48;37.19336;95358.53;;;;
2022/03/12 04:00:46;;;;;;;11.7;6.550001;;;;;;;-2.48;37.19336;95358.53;;;;
2022/03/12 04:01:53;;;;;;;11.7;6.550001;;;;;;;-2.48;37.19336;95358.53;;;;
2022/03/12 04:02:59;;;;;;;11.7;6.550001;;;;;;;-2.48;37.19336;95358.53;;;;
2022/03/12 04:04:00;;;;;;;10.15;6.250001;;;;;;;-2.44;37.20801;95355.02;;;;
2022/03/12 04:05:01;;;;;;;10.15;6.250001;;;;;;;-2.44;37.20801;95355.02;;;;
2022/03/12 04:06:01;;;;;;;10.15;6.250001;;;;;;;-2.44;37.20801;95355.02;;;;
2022/03/12 04:07:04;;;;;;;10.15;6.250001;;;;;;;-2.44;37.20801;95355.02;;;;
2022/03/12 04:08:07;;;;;;;10.15;6.250001;;;;;;;-2.44;37.20801;95355.02;;;;
2022/03/12 04:09:08;;;;;;;10.15;6.250001;;;;;;;-2.44;37.20801;95355.02;;;;
2022/03/12 04:10:10;;;;;;;10.15;6.250001;;;;;;;-2.44;37.20801;95355.02;;;;
2022/03/12 04:11:10;;;;;;;10.15;6.250001;;;;;;;-2.44;37.20801;95355.02;;;;
2022/03/12 04:12:14;;;;;;;10.15;6.250001;;;;;;;-2.44;37.20801;95355.02;;;;
2022/03/12 04:13:15;;;;;;;10.15;6.250001;;;;;;;-2.44;37.20801;95355.02;;;;
2022/03/12 04:14:16;;;;;;;11.15;5.95;;;;;;;-2.42;37.3252;95342.97;;;;
2022/03/12 04:15:17;;;;;;;11.15;5.95;;;;;;;-2.42;37.3252;95342.97;;;;
2022/03/12 04:16:18;;;;;;;11.15;5.95;;;;;;;-2.42;37.3252;95342.97;;;;
2022/03/12 04:17:21;;;;;;;11.15;5.95;;;;;;;-2.42;37.3252;95342.97;;;;
2022/03/12 04:18:22;;;;;;;11.15;5.95;;;;;;;-2.42;37.3252;95342.97;;;;
2022/03/12 04:19:22;;;;;;;11.15;5.95;;;;;;;-2.42;37.3252;95342.97;;;;
2022/03/12 04:20:23;;;;;;;11.15;5.95;;;;;;;-2.42;37.3252;95342.97;;;;
2022/03/12 04:21:24;;;;;;;11.15;5.95;;;;;;;-2.42;37.3252;95342.97;;;;
2022/03/12 04:22:25;;;;;;;11.15;5.95;;;;;;;-2.42;37.3252;95342.97;;;;
2022/03/12 04:23:27;;;;;;;11.15;5.95;;;;;;;-2.42;37.3252;95342.97;;;;
2022/03/12 04:24:28;;;;;;;11.15;5.95;;;;;;;-2.42;37.3252;95342.97;;;;
2022/03/12 04:25:31;;;;;;;11.6;6.550001;;;;;;;-2.41;37.4209;95344.55;;;;
2022/03/12 04:26:35;;;;;;;11.6;6.550001;;;;;;;-2.41;37.4209;95344.55;;;;
2022/03/12 04:27:35;;;;;;;11.6;6.550001;;;;;;;-2.41;37.4209;95344.55;;;;
2022/03/12 04:28:36;;;;;;;11.6;6.550001;;;;;;;-2.41;37.4209;95344.55;;;;
2022/03/12 04:29:38;;;;;;;11.6;6.550001;;;;;;;-2.41;37.4209;95344.55;;;;
2022/03/12 04:30:39;;;;;;;11.6;6.550001;;;;;;;-2.41;37.4209;95344.55;;;;
2022/03/12 04:31:39;;;;;;;11.6;6.550001;;;;;;;-2.41;37.4209;95344.55;;;;
2022/03/12 04:32:40;;;;;;;11.6;6.550001;;;;;;;-2.41;37.4209;95344.55;;;;
2022/03/12 04:33:41;;;;;;;11.6;6.550001;;;;;;;-2.41;37.4209;95344.55;;;;
2022/03/12 04:34:42;;;;;;;11.6;6.550001;;;;;;;-2.41;37.4209;95344.55;;;;
2022/03/12 04:35:42;;;;;;;11.9;6.349999;;;;;;;-2.37;37.48633;95344.64;;;;
2022/03/12 04:36:44;;;;;;;11.9;6.349999;;;;;;;-2.37;37.48633;95344.64;;;;
2022/03/12 04:37:45;;;;;;;11.9;6.349999;;;;;;;-2.37;37.48633;95344.64;;;;
2022/03/12 04:38:46;;;;;;;11.9;6.349999;;;;;;;-2.37;37.48633;95344.64;;;;
2022/03/12 04:39:48;;;;;;;11.9;6.349999;;;;;;;-2.37;37.48633;95344.64;;;;
2022/03/12 04:40:49;;;;;;;11.9;6.349999;;;;;;;-2.37;37.48633;95344.64;;;;
2022/03/12 04:41:49;;;;;;;11.9;6.349999;;;;;;;-2.37;37.48633;95344.64;;;;
2022/03/12 04:42:50;;;;;;;11.9;6.349999;;;;;;;-2.37;37.48633;95344.64;;;;
2022/03/12 04:43:52;;;;;;;11.9;6.349999;;;;;;;-2.37;37.48633;95344.64;;;;
2022/03/12 04:44:53;;;;;;;11.9;6.349999;;;;;;;-2.37;37.48633;95344.64;;;;
2022/03/12 04:45:54;;;;;;;11.9;6.349999;;;;;;;-2.37;37.48633;95344.64;;;;
2022/03/12 04:46:55;;;;;;;9.95;6.75;;;;;;;-2.39;37.58008;95350.51;;;;
2022/03/12 04:47:56;;;;;;;9.95;6.75;;;;;;;-2.39;37.58008;95350.51;;;;
2022/03/12 04:48:56;;;;;;;9.95;6.75;;;;;;;-2.39;37.58008;95350.51;;;;
2022/03/12 04:49:57;;;;;;;9.95;6.75;;;;;;;-2.39;37.58008;95350.51;;;;
2022/03/12 04:50:58;;;;;;;9.95;6.75;;;;;;;-2.39;37.58008;95350.51;;;;
2022/03/12 04:51:58;;;;;;;9.95;6.75;;;;;;;-2.39;37.58008;95350.51;;;;
2022/03/12 04:52:59;;;;;;;9.95;6.75;;;;;;;-2.39;37.58008;95350.51;;;;
2022/03/12 04:54:00;;;;;;;9.95;6.75;;;;;;;-2.39;37.58008;95350.51;;;;
2022/03/12 04:55:01;;;;;;;9.95;6.75;;;;;;;-2.39;37.58008;95350.51;;;;
2022/03/12 04:56:06;;;;;;;9.95;6.75;;;;;;;-2.39;37.58008;95350.51;;;;
2022/03/12 04:57:07;;;;;;;10.9;6.550002;;;;;;;-2.4;37.72559;95350.67;;;;
2022/03/12 04:58:07;;;;;;;10.9;6.550002;;;;;;;-2.4;37.72559;95350.67;;;;
2022/03/12 04:59:09;;;;;;;10.9;6.550002;;;;;;;-2.4;37.72559;95350.67;;;;
2022/03/12 05:00:12;;;;;;;10.9;6.550002;;;;;;;-2.4;37.72559;95350.67;;;;
2022/03/12 05:01:16;;;;;;;10.9;6.550002;;;;;;;-2.4;37.72559;95350.67;;;;
2022/03/12 05:02:16;;;;;;;10.9;6.550002;;;;;;;-2.4;37.72559;95350.67;;;;
2022/03/12 05:03:18;;;;;;;10.9;6.550002;;;;;;;-2.4;37.72559;95350.67;;;;
2022/03/12 05:04:22;;;;;;;10.9;6.550002;;;;;;;-2.4;37.72559;95350.67;;;;
2022/03/12 05:05:23;;;;;;;10.9;6.550002;;;;;;;-2.4;37.72559;95350.67;;;;
2022/03/12 05:06:26;;;;;;;10.9;6.550002;;;;;;;-2.4;37.72559;95350.67;;;;
2022/03/12 05:07:26;;;;;;;10.9;6.550002;;;;;;;-2.4;37.72559;95350.67;;;;
2022/03/12 05:08:28;;;;;;;10.4;6.25;;;;;;;-2.45;37.88965;95365.69;;;;
2022/03/12 05:09:28;;;;;;;10.4;6.25;;;;;;;-2.45;37.88965;95365.69;;;;
2022/03/12 05:10:29;;;;;;;10.4;6.25;;;;;;;-2.45;37.88965;95365.69;;;;
2022/03/12 05:11:30;;;;;;;10.4;6.25;;;;;;;-2.45;37.88965;95365.69;;;;
2022/03/12 05:12:32;;;;;;;10.4;6.25;;;;;;;-2.45;37.88965;95365.69;;;;
2022/03/12 05:13:32;;;;;;;10.4;6.25;;;;;;;-2.45;37.88965;95365.69;;;;
2022/03/12 05:14:35;;;;;;;10.4;6.25;;;;;;;-2.45;37.88965;95365.69;;;;
2022/03/12 05:15:38;;;;;;;10.4;6.25;;;;;;;-2.45;37.88965;95365.69;;;;
2022/03/12 05:16:39;;;;;;;10.4;6.25;;;;;;;-2.45;37.88965;95365.69;;;;
2022/03/12 05:17:39;;;;;;;10.4;6.25;;;;;;;-2.45;37.88965;95365.69;;;;
2022/03/12 05:18:40;;;;;;;10.75;6.5;;;;;;;-2.57;37.98242;95375.73;;;;
2022/03/12 05:19:41;;;;;;;10.75;6.5;;;;;;;-2.57;37.98242;95375.73;;;;
2022/03/12 05:20:43;;;;;;;10.75;6.5;;;;;;;-2.57;37.98242;95375.73;;;;
2022/03/12 05:21:43;;;;;;;10.75;6.5;;;;;;;-2.57;37.98242;95375.73;;;;
2022/03/12 05:22:44;;;;;;;10.75;6.5;;;;;;;-2.57;37.98242;95375.73;;;;
2022/03/12 05:23:44;;;;;;;10.75;6.5;;;;;;;-2.57;37.98242;95375.73;;;;
2022/03/12 05:24:45;;;;;;;10.75;6.5;;;;;;;-2.57;37.98242;95375.73;;;;
2022/03/12 05:25:46;;;;;;;10.75;6.5;;;;;;;-2.57;37.98242;95375.73;;;;
2022/03/12 05:26:47;;;;;;;10.75;6.5;;;;;;;-2.57;37.98242;95375.73;;;;
2022/03/12 05:27:48;;;;;;;10.75;6.5;;;;;;;-2.57;37.98242;95375.73;;;;
2022/03/12 05:28:50;;;;;;;10.75;6.5;;;;;;;-2.57;37.98242;95375.73;;;;
2022/03/12 05:29:54;;;;;;;11.1;6.5;;;;;;;-2.7;38.09668;95388.54;;;;
2022/03/12 05:30:58;;;;;;;11.1;6.5;;;;;;;-2.7;38.09668;95388.54;;;;
2022/03/12 05:32:00;;;;;;;11.1;6.5;;;;;;;-2.7;38.09668;95388.54;;;;
2022/03/12 05:33:01;;;;;;;11.1;6.5;;;;;;;-2.7;38.09668;95388.54;;;;
2022/03/12 05:34:02;;;;;;;11.1;6.5;;;;;;;-2.7;38.09668;95388.54;;;;
2022/03/12 05:35:02;;;;;;;11.1;6.5;;;;;;;-2.7;38.09668;95388.54;;;;
2022/03/12 05:36:05;;;;;;;11.1;6.5;;;;;;;-2.7;38.09668;95388.54;;;;
2022/03/12 05:37:09;;;;;;;11.1;6.5;;;;;;;-2.7;38.09668;95388.54;;;;